Time;durP1;ratioP1;P1;durP2;ratioP2;P2;SDS_P1;SDS_P2;PMS_P1;PMS_P2;Temp;Humidity;BMP_temperature;BMP_pressure;BME280_temperature;BME280_humidity;BME280_pressure;Samples;Min_cycle;Max_cycle;Signal;HPM_P1;HPM_P2
2022/04/30 00:01:36;;;;;;;;;;;;;;;12.62;50.51;100522.50;4457082;32;34381;-82
2022/04/30 00:04:23;;;;;;;;;;;;;;;12.67;50.25;100525.56;4449109;32;34405;-82
2022/04/30 00:06:51;;;;;;;;;;;;;;;12.67;50.45;100519.41;4441830;32;35002;-82
2022/04/30 00:09:19;;;;;;;;;;;;;;;12.64;50.61;100519.66;4430265;32;32784;-82
2022/04/30 00:11:53;;;;;;;;;;;;;;;12.49;50.99;100521.91;4427719;32;34798;-81
2022/04/30 00:14:21;;;;;;;;;;;;;;;12.60;50.75;100528.94;4418166;32;34048;-81
2022/04/30 00:16:49;;;;;;;;;;;;;;;12.69;50.45;100517.44;4431818;32;35946;-82
2022/04/30 00:19:19;;;;;;;;;;;;;;;12.63;50.77;100517.97;4426427;32;33963;-82
2022/04/30 00:21:47;;;;;;;;;;;;;;;12.41;51.04;100521.78;4434140;32;33565;-82
2022/04/30 00:24:15;;;;;;;;;;;;;;;12.31;51.86;100522.72;4438443;32;35944;-82
2022/04/30 00:26:43;;;;;;;;;;;;;;;12.55;50.96;100521.38;4439979;32;35466;-82
2022/04/30 00:29:12;;;;;;;;;;;;;;;12.56;50.96;100520.38;4450849;32;33203;-82
2022/04/30 00:31:39;;;;;;;;;;;;;;;12.56;50.85;100522.22;4445662;32;34119;-82
2022/04/30 00:34:08;;;;;;;;;;;;;;;12.49;50.70;100521.09;4427129;32;34234;-82
2022/04/30 00:36:37;;;;;;;;;;;;;;;12.55;50.21;100524.03;4444220;32;35523;-82
2022/04/30 00:39:04;;;;;;;;;;;;;;;12.65;49.62;100522.22;4432871;32;33323;-81
2022/04/30 00:41:33;;;;;;;;;;;;;;;12.58;49.89;100528.25;4417048;32;33315;-82
2022/04/30 00:44:00;;;;;;;;;;;;;;;12.60;49.70;100515.59;4458513;32;35363;-81
2022/04/30 00:46:48;;;;;;;;;;;;;;;12.60;49.45;100524.47;4424546;32;35250;-81
2022/04/30 00:49:20;;;;;;;;;;;;;;;12.57;50.09;100530.06;4421747;32;32842;-82
2022/04/30 00:51:50;;;;;;;;;;;;;;;12.41;51.02;100524.44;4455454;32;34254;-82
2022/04/30 00:54:20;;;;;;;;;;;;;;;12.51;51.25;100522.63;4409548;32;34547;-82
2022/04/30 00:57:13;;;;;;;;;;;;;;;12.47;51.51;100523.06;4428705;32;33233;-81
2022/04/30 00:59:41;;;;;;;;;;;;;;;12.49;51.44;100527.25;4435403;32;32009;-82
2022/04/30 01:02:09;;;;;;;;;;;;;;;12.50;51.49;100528.09;4417742;32;33946;-81
2022/04/30 01:04:45;;;;;;;;;;;;;;;12.51;51.26;100527.97;4435846;32;34761;-81
2022/04/30 01:07:15;;;;;;;;;;;;;;;12.46;51.46;100532.88;4440319;32;34845;-81
2022/04/30 01:09:57;;;;;;;;;;;;;;;12.33;51.74;100534.97;4423981;32;34003;-81
2022/04/30 01:12:27;;;;;;;;;;;;;;;12.39;51.68;100536.22;4430229;32;33125;-81
2022/04/30 01:14:55;;;;;;;;;;;;;;;12.37;51.71;100532.88;4421994;32;35319;-81
2022/04/30 01:17:22;;;;;;;;;;;;;;;12.37;51.84;100532.88;4427012;32;34034;-82
2022/04/30 01:19:51;;;;;;;;;;;;;;;12.28;52.14;100518.50;4428759;32;34197;-82
2022/04/30 01:22:24;;;;;;;;;;;;;;;12.32;51.84;100524.41;4417642;32;33469;-82
2022/04/30 01:24:57;;;;;;;;;;;;;;;12.24;51.94;100526.94;4415831;32;34045;-81
2022/04/30 01:27:26;;;;;;;;;;;;;;;12.24;52.09;100521.59;4422533;32;34201;-81
2022/04/30 01:29:55;;;;;;;;;;;;;;;12.21;52.26;100520.03;4433073;32;32599;-81
2022/04/30 01:38:12;;;;;;;;;;;;;;;11.99;52.50;100522.09;4442066;32;34222;-81
2022/04/30 01:40:40;;;;;;;;;;;;;;;12.02;52.58;100521.81;4434747;32;34664;-82
2022/04/30 01:43:08;;;;;;;;;;;;;;;12.07;52.18;100519.56;4413338;32;33032;-82
2022/04/30 01:45:35;;;;;;;;;;;;;;;12.03;52.20;100512.84;4451585;32;35164;-81
2022/04/30 01:48:04;;;;;;;;;;;;;;;11.85;52.83;100509.13;4438229;32;34443;-81
2022/04/30 01:50:34;;;;;;;;;;;;;;;12.00;52.26;100503.28;4448905;32;33300;-81
2022/04/30 01:53:03;;;;;;;;;;;;;;;11.81;53.03;100505.88;4414933;32;33152;-81
2022/04/30 01:55:31;;;;;;;;;;;;;;;11.98;52.47;100497.25;4434098;32;36447;-81
2022/04/30 01:58:00;;;;;;;;;;;;;;;11.96;52.25;100493.03;4413750;32;34523;-82
2022/04/30 02:00:28;;;;;;;;;;;;;;;11.93;52.14;100498.63;4417424;32;34033;-81
2022/04/30 02:03:06;;;;;;;;;;;;;;;11.91;52.09;100495.28;4429239;32;33015;-82
2022/04/30 02:05:35;;;;;;;;;;;;;;;11.92;51.89;100491.63;4435291;32;34627;-81
2022/04/30 02:08:09;;;;;;;;;;;;;;;11.83;51.91;100493.25;4439281;32;34738;-82
2022/04/30 02:10:39;;;;;;;;;;;;;;;11.81;52.26;100497.06;4430630;32;33673;-82
2022/04/30 02:13:07;;;;;;;;;;;;;;;11.77;52.34;100490.28;4431587;32;34025;-82
2022/04/30 02:15:34;;;;;;;;;;;;;;;11.80;51.93;100498.00;4445877;32;36078;-81
2022/04/30 02:18:03;;;;;;;;;;;;;;;11.78;52.00;100491.97;4409943;32;35071;-81
2022/04/30 02:20:38;;;;;;;;;;;;;;;11.62;52.45;100491.66;4449272;32;34350;-81
2022/04/30 02:23:08;;;;;;;;;;;;;;;11.51;52.88;100497.03;4437880;32;33602;-81
2022/04/30 02:25:37;;;;;;;;;;;;;;;11.54;52.51;100496.78;4437196;32;35360;-82
2022/04/30 02:28:05;;;;;;;;;;;;;;;11.55;52.54;100488.63;4423906;32;33976;-81
2022/04/30 02:30:37;;;;;;;;;;;;;;;11.42;52.85;100493.34;4444004;32;32364;-82
2022/04/30 02:33:09;;;;;;;;;;;;;;;11.47;52.48;100487.63;4434496;32;33828;-81
2022/04/30 02:36:01;;;;;;;;;;;;;;;11.33;53.11;100487.97;4435241;32;35101;-82
2022/04/30 02:38:32;;;;;;;;;;;;;;;11.34;52.94;100485.16;4484679;26;34884;-85
2022/04/30 02:41:00;;;;;;;;;;;;;;;11.30;53.00;100490.91;4439289;32;32086;-88
2022/04/30 02:43:28;;;;;;;;;;;;;;;11.26;53.23;100485.97;4452993;32;34879;-85
2022/04/30 02:45:55;;;;;;;;;;;;;;;11.30;53.22;100482.91;4423621;32;34075;-85
2022/04/30 02:48:23;;;;;;;;;;;;;;;11.15;53.42;100484.22;4450626;32;34627;-86
2022/04/30 02:50:58;;;;;;;;;;;;;;;11.22;53.20;100479.22;4411522;32;32453;-85
2022/04/30 02:53:26;;;;;;;;;;;;;;;11.21;53.26;100480.19;4450063;32;34512;-87
2022/04/30 02:55:53;;;;;;;;;;;;;;;11.18;53.37;100477.78;4438807;32;36206;-86
2022/04/30 03:01:08;;;;;;;;;;;;;;;11.09;53.78;100466.12;4436859;32;33462;-87
2022/04/30 03:03:36;;;;;;;;;;;;;;;11.09;53.92;100467.91;4423937;32;33274;-87
2022/04/30 03:06:04;;;;;;;;;;;;;;;11.10;53.74;100465.13;4458505;32;34594;-87
2022/04/30 03:08:32;;;;;;;;;;;;;;;11.11;53.44;100461.50;4413687;32;34150;-87
2022/04/30 03:11:03;;;;;;;;;;;;;;;11.03;53.45;100463.13;4425093;32;33098;-87
2022/04/30 03:13:30;;;;;;;;;;;;;;;10.96;53.61;100467.28;4437012;32;34449;-87
2022/04/30 03:21:41;;;;;;;;;;;;;;;11.07;53.34;100469.88;4447801;32;35481;-87
2022/04/30 03:21:42;;;;;;;;;;;;;;;10.62;55.03;100471.09;4439235;32;33623;-86
2022/04/30 03:24:09;;;;;;;;;;;;;;;10.80;54.54;100477.53;4430261;32;33236;-86
2022/04/30 03:26:37;;;;;;;;;;;;;;;10.90;54.12;100465.13;4447691;32;34833;-88
2022/04/30 03:29:04;;;;;;;;;;;;;;;10.90;53.87;100468.66;4429737;32;34833;-86
2022/04/30 03:31:32;;;;;;;;;;;;;;;10.94;53.67;100475.41;4420427;32;32658;-88
2022/04/30 03:34:01;;;;;;;;;;;;;;;10.84;54.22;100469.16;4453623;32;34057;-87
2022/04/30 03:36:29;;;;;;;;;;;;;;;10.87;53.96;100476.88;4437569;32;35875;-87
2022/04/30 03:38:57;;;;;;;;;;;;;;;10.86;54.16;100471.72;4440795;32;33688;-87
2022/04/30 03:41:24;;;;;;;;;;;;;;;10.96;53.88;100481.44;4435925;32;32705;-87
2022/04/30 03:43:52;;;;;;;;;;;;;;;11.01;53.67;100473.91;4424863;32;34648;-87
2022/04/30 03:46:19;;;;;;;;;;;;;;;10.91;53.99;100483.66;4440658;32;34908;-86
2022/04/30 03:48:51;;;;;;;;;;;;;;;10.94;53.69;100471.91;4425651;32;33811;-87
2022/04/30 03:51:22;;;;;;;;;;;;;;;10.94;54.30;100475.41;4442334;32;33768;-87
2022/04/30 03:53:51;;;;;;;;;;;;;;;10.92;54.10;100474.69;4421488;32;32690;-87
2022/04/30 03:56:19;;;;;;;;;;;;;;;10.97;54.14;100469.84;4431516;32;35287;-87
2022/04/30 03:58:48;;;;;;;;;;;;;;;10.86;54.72;100483.19;4434324;32;34628;-87
2022/04/30 04:01:19;;;;;;;;;;;;;;;10.90;54.95;100481.97;4456441;32;33412;-86
2022/04/30 04:03:50;;;;;;;;;;;;;;;11.01;54.95;100483.69;4453342;32;34150;-86
2022/04/30 04:06:18;;;;;;;;;;;;;;;11.04;54.91;100472.81;4443073;32;36913;-87
2022/04/30 04:08:50;;;;;;;;;;;;;;;11.00;55.06;100471.37;4435369;32;33983;-87
2022/04/30 04:11:18;;;;;;;;;;;;;;;11.01;54.93;100471.25;4436182;32;33974;-86
2022/04/30 04:19:22;;;;;;;;;;;;;;;11.17;54.49;100482.28;4447865;32;35374;-87
2022/04/30 04:21:50;;;;;;;;;;;;;;;11.18;54.47;100480.44;4437356;32;34121;-87
2022/04/30 04:27:05;;;;;;;;;;;;;;;11.25;54.67;100482.47;4443321;32;34339;-86
2022/04/30 04:29:32;;;;;;;;;;;;;;;11.28;54.65;100484.87;4444122;32;34769;-87
2022/04/30 04:32:00;;;;;;;;;;;;;;;11.36;54.65;100487.72;4435720;32;33773;-87
2022/04/30 04:34:27;;;;;;;;;;;;;;;11.45;54.57;100484.25;4449535;32;34567;-86
2022/04/30 04:36:55;;;;;;;;;;;;;;;11.53;54.75;100476.44;4437583;32;34590;-86
2022/04/30 04:39:22;;;;;;;;;;;;;;;11.60;54.96;100480.25;4432109;32;34839;-86
2022/04/30 04:41:50;;;;;;;;;;;;;;;11.63;55.40;100480.03;4451944;32;33450;-86
2022/04/30 04:44:17;;;;;;;;;;;;;;;11.74;55.09;100483.41;4427493;32;32396;-86
2022/04/30 04:46:45;;;;;;;;;;;;;;;11.85;54.88;100479.81;4460014;32;35819;-86
2022/04/30 04:49:12;;;;;;;;;;;;;;;11.96;54.96;100474.34;4441365;32;34923;-86
2022/04/30 04:54:29;;;;;;;;;;;;;;;12.19;54.84;100489.16;4463170;26;20374;-80
2022/04/30 04:56:57;;;;;;;;;;;;;;;12.21;55.19;100489.88;4445701;32;35208;-80
2022/04/30 04:59:24;;;;;;;;;;;;;;;12.43;54.97;100485.13;4432611;32;34029;-80
2022/04/30 05:01:52;;;;;;;;;;;;;;;12.53;54.97;100482.44;4432706;32;31805;-80
2022/04/30 05:04:21;;;;;;;;;;;;;;;12.53;54.66;100487.78;4432740;32;32517;-80
2022/04/30 05:06:49;;;;;;;;;;;;;;;12.60;54.89;100486.25;4445732;32;34720;-80
2022/04/30 05:09:16;;;;;;;;;;;;;;;12.78;55.23;100476.53;4431724;32;32883;-81
2022/04/30 05:11:43;;;;;;;;;;;;;;;12.93;54.52;100483.97;4432455;32;33108;-80
2022/04/30 05:14:11;;;;;;;;;;;;;;;12.97;54.66;100484.56;4446193;32;34927;-80
2022/04/30 05:16:38;;;;;;;;;;;;;;;13.28;54.12;100486.91;4458857;32;34680;-80
2022/04/30 05:19:06;;;;;;;;;;;;;;;13.50;54.05;100486.53;4419767;32;35568;-80
2022/04/30 05:21:34;;;;;;;;;;;;;;;13.60;53.58;100484.66;4432582;32;32330;-80
2022/04/30 05:24:01;;;;;;;;;;;;;;;13.66;53.92;100486.75;4459855;32;34908;-80
2022/04/30 05:26:28;;;;;;;;;;;;;;;13.92;53.09;100485.09;4444946;32;34497;-80
2022/04/30 05:28:56;;;;;;;;;;;;;;;14.11;51.98;100486.81;4432557;32;34082;-80
2022/04/30 05:31:23;;;;;;;;;;;;;;;14.38;47.82;100490.34;4458367;32;31829;-81
2022/04/30 05:33:51;;;;;;;;;;;;;;;14.46;48.75;100488.56;4445653;32;35135;-80
2022/04/30 05:36:19;;;;;;;;;;;;;;;14.56;48.52;100489.34;4445316;32;35205;-81
2022/04/30 05:38:47;;;;;;;;;;;;;;;14.83;47.74;100489.25;4459811;32;35430;-80
2022/04/30 05:41:14;;;;;;;;;;;;;;;15.03;47.25;100482.72;4446078;32;34140;-79
2022/04/30 05:43:42;;;;;;;;;;;;;;;14.83;47.27;100485.75;4444985;32;32062;-80
2022/04/30 05:46:09;;;;;;;;;;;;;;;15.17;47.49;100490.22;4461510;32;34821;-80
2022/04/30 05:48:37;;;;;;;;;;;;;;;15.41;46.76;100481.53;4447348;32;34234;-80
2022/04/30 05:51:05;;;;;;;;;;;;;;;15.53;46.35;100486.47;4447056;32;32833;-79
2022/04/30 05:53:32;;;;;;;;;;;;;;;15.47;46.55;100486.22;4434066;32;34283;-79
2022/04/30 05:56:00;;;;;;;;;;;;;;;15.86;45.10;100479.41;4446156;32;34955;-80
2022/04/30 05:58:27;;;;;;;;;;;;;;;15.81;43.22;100482.59;4433672;32;34865;-79
2022/04/30 06:00:54;;;;;;;;;;;;;;;16.01;42.04;100480.47;4433155;32;32777;-80
2022/04/30 06:03:22;;;;;;;;;;;;;;;16.13;40.96;100473.81;4458934;32;33867;-81
2022/04/30 06:05:50;;;;;;;;;;;;;;;16.37;41.93;100482.81;4440475;32;33663;-81
2022/04/30 06:08:17;;;;;;;;;;;;;;;16.56;39.05;100478.97;4445834;32;34182;-80
2022/04/30 06:10:45;;;;;;;;;;;;;;;16.69;39.25;100468.59;4447087;32;33399;-82
2022/04/30 06:13:12;;;;;;;;;;;;;;;16.69;38.59;100471.28;4447003;32;34146;-81
2022/04/30 06:15:40;;;;;;;;;;;;;;;16.67;38.78;100475.97;4459208;32;34493;-81
2022/04/30 06:18:08;;;;;;;;;;;;;;;16.80;39.27;100481.69;4421350;32;32918;-82
2022/04/30 06:20:36;;;;;;;;;;;;;;;16.93;38.18;100477.50;4446893;32;33453;-81
2022/04/30 06:23:03;;;;;;;;;;;;;;;17.08;38.63;100486.56;4433949;32;33425;-82
2022/04/30 06:25:30;;;;;;;;;;;;;;;17.21;38.37;100484.22;4460721;32;35368;-81
2022/04/30 06:28:01;;;;;;;;;;;;;;;17.28;37.22;100481.66;4460143;32;34032;-81
2022/04/30 06:30:28;;;;;;;;;;;;;;;17.32;37.08;100483.00;4434258;32;32917;-82
2022/04/30 06:32:56;;;;;;;;;;;;;;;17.47;37.87;100479.47;4446808;32;34932;-81
2022/04/30 06:35:23;;;;;;;;;;;;;;;17.59;37.10;100478.13;4434330;32;36210;-81
2022/04/30 06:37:51;;;;;;;;;;;;;;;17.15;37.25;100481.34;4446588;32;34142;-82
2022/04/30 06:40:20;;;;;;;;;;;;;;;17.47;37.25;100475.94;4446968;32;33853;-81
2022/04/30 06:42:47;;;;;;;;;;;;;;;17.29;37.69;100484.19;4447101;32;34194;-81
2022/04/30 06:45:16;;;;;;;;;;;;;;;17.52;37.72;100485.19;4433895;32;37033;-81
2022/04/30 06:47:44;;;;;;;;;;;;;;;17.84;37.16;100482.38;4460940;32;34620;-81
2022/04/30 06:50:11;;;;;;;;;;;;;;;17.96;36.72;100475.62;4446514;32;34043;-81
2022/04/30 06:58:13;;;;;;;;;;;;;;;17.84;37.09;100474.31;4435296;32;33706;-80
2022/04/30 07:03:26;;;;;;;;;;;;;;;17.87;37.25;100476.66;4448143;32;33637;-81
2022/04/30 07:06:04;;;;;;;;;;;;;;;17.71;37.20;100482.97;4459983;32;35846;-83
2022/04/30 07:08:33;;;;;;;;;;;;;;;17.72;36.65;100473.88;4445670;32;32720;-82
2022/04/30 07:11:01;;;;;;;;;;;;;;;17.54;37.73;100475.09;4444604;32;31651;-81
2022/04/30 07:13:30;;;;;;;;;;;;;;;18.07;37.78;100469.84;4433812;32;34232;-81
2022/04/30 07:15:58;;;;;;;;;;;;;;;18.09;37.00;100465.13;4445197;32;34102;-82
2022/04/30 07:18:26;;;;;;;;;;;;;;;18.17;37.13;100474.00;4459928;32;33919;-82
2022/04/30 07:20:55;;;;;;;;;;;;;;;18.22;36.42;100468.09;4445519;32;33909;-80
2022/04/30 07:23:22;;;;;;;;;;;;;;;18.49;36.52;100468.47;4446143;32;33761;-81
2022/04/30 07:25:50;;;;;;;;;;;;;;;18.44;36.34;100470.00;4445848;32;34538;-80
2022/04/30 07:28:17;;;;;;;;;;;;;;;18.46;36.47;100468.81;4445713;32;34360;-81
2022/04/30 07:30:45;;;;;;;;;;;;;;;18.80;35.92;100471.09;4459989;32;32365;-81
2022/04/30 07:33:12;;;;;;;;;;;;;;;19.12;34.91;100462.72;4459804;32;34927;-81
2022/04/30 07:35:40;;;;;;;;;;;;;;;18.88;35.64;100465.66;4459614;32;34744;-80
2022/04/30 07:38:07;;;;;;;;;;;;;;;18.97;36.08;100454.59;4445631;32;35300;-81
2022/04/30 07:40:38;;;;;;;;;;;;;;;19.16;35.72;100464.06;4445554;32;32857;-81
2022/04/30 07:43:05;;;;;;;;;;;;;;;19.20;35.72;100458.16;4433428;32;34919;-81
2022/04/30 07:45:33;;;;;;;;;;;;;;;19.14;35.32;100460.69;4432915;32;35017;-80
2022/04/30 07:48:00;;;;;;;;;;;;;;;19.14;36.37;100463.38;4459991;32;34363;-81
2022/04/30 07:50:31;;;;;;;;;;;;;;;19.52;34.68;100455.09;4445945;32;32688;-80
2022/04/30 07:52:58;;;;;;;;;;;;;;;19.64;34.39;100460.87;4445831;32;33652;-82
2022/04/30 07:55:28;;;;;;;;;;;;;;;19.29;35.37;100458.91;4432690;32;35216;-81
2022/04/30 07:57:57;;;;;;;;;;;;;;;19.15;36.38;100460.50;4445380;32;32844;-81
2022/04/30 08:00:24;;;;;;;;;;;;;;;19.85;35.30;100452.88;4445849;32;34213;-83
2022/04/30 08:02:56;;;;;;;;;;;;;;;19.76;34.90;100453.97;4445721;32;33522;-81
2022/04/30 08:05:27;;;;;;;;;;;;;;;19.80;34.63;100452.59;4433534;32;35498;-81
2022/04/30 08:07:54;;;;;;;;;;;;;;;20.05;34.36;100451.28;4432116;32;34724;-80
2022/04/30 08:10:22;;;;;;;;;;;;;;;20.26;34.80;100443.22;4433458;32;32285;-80
2022/04/30 08:12:56;;;;;;;;;;;;;;;20.48;35.83;100450.34;4446180;32;33156;-81
2022/04/30 08:15:24;;;;;;;;;;;;;;;20.51;32.29;100453.50;4445939;32;33600;-81
2022/04/30 08:17:52;;;;;;;;;;;;;;;20.56;33.26;100448.34;4446660;32;34606;-80
2022/04/30 08:20:19;;;;;;;;;;;;;;;20.33;33.42;100455.78;4451744;32;32594;-80
2022/04/30 08:22:47;;;;;;;;;;;;;;;20.15;34.00;100447.28;4460556;32;35147;-80
2022/04/30 08:25:14;;;;;;;;;;;;;;;20.75;33.07;100455.81;4445984;32;36125;-79
2022/04/30 08:27:42;;;;;;;;;;;;;;;20.63;33.63;100452.81;4446199;32;34618;-80
2022/04/30 08:30:10;;;;;;;;;;;;;;;20.53;33.70;100452.25;4446454;32;33107;-80
2022/04/30 08:32:38;;;;;;;;;;;;;;;20.72;33.96;100457.06;4445925;32;33756;-80
2022/04/30 08:35:05;;;;;;;;;;;;;;;20.90;33.60;100448.50;4445503;32;34480;-80
2022/04/30 08:37:53;;;;;;;;;;;;;;;20.70;32.35;100442.88;4448339;32;34004;-80
2022/04/30 08:40:20;;;;;;;;;;;;;;;20.44;33.50;100446.34;4446001;32;32869;-79
2022/04/30 08:42:48;;;;;;;;;;;;;;;20.90;32.19;100443.09;4445690;32;33683;-80
2022/04/30 08:45:16;;;;;;;;;;;;;;;21.06;35.13;100440.13;4460116;32;34651;-80
2022/04/30 08:47:46;;;;;;;;;;;;;;;21.48;31.85;100443.56;4433060;32;34582;-80
2022/04/30 08:50:14;;;;;;;;;;;;;;;21.35;31.72;100446.16;4445681;32;31746;-80
2022/04/30 08:52:41;;;;;;;;;;;;;;;21.29;30.38;100436.16;4420549;32;33124;-80
2022/04/30 08:55:09;;;;;;;;;;;;;;;21.49;29.97;100434.41;4460126;32;35316;-79
2022/04/30 08:57:37;;;;;;;;;;;;;;;21.68;30.32;100435.56;4445766;32;34577;-80
2022/04/30 09:00:04;;;;;;;;;;;;;;;21.64;29.61;100429.72;4445589;32;31987;-80
2022/04/30 09:02:32;;;;;;;;;;;;;;;21.83;34.17;100429.00;4445750;32;33427;-81
2022/04/30 09:04:59;;;;;;;;;;;;;;;22.29;28.13;100435.44;4433200;32;35110;-80
2022/04/30 09:07:27;;;;;;;;;;;;;;;22.22;28.89;100426.47;4432903;32;34093;-80
2022/04/30 09:09:55;;;;;;;;;;;;;;;22.00;27.48;100422.19;4445479;32;31549;-79
2022/04/30 09:12:23;;;;;;;;;;;;;;;21.55;27.96;100419.22;4460092;32;34600;-81
2022/04/30 09:14:51;;;;;;;;;;;;;;;21.86;28.48;100425.06;4459967;32;34844;-80
2022/04/30 09:17:18;;;;;;;;;;;;;;;21.90;29.19;100418.22;4432641;32;34299;-80
2022/04/30 09:19:45;;;;;;;;;;;;;;;22.21;28.22;100415.81;4445164;32;33541;-80
2022/04/30 09:22:16;;;;;;;;;;;;;;;21.87;27.60;100408.59;4459749;32;33812;-80
2022/04/30 09:24:44;;;;;;;;;;;;;;;22.26;27.38;100410.59;4433273;32;34575;-79
2022/04/30 09:27:32;;;;;;;;;;;;;;;22.24;27.04;100408.12;4445511;32;32675;-80
2022/04/30 09:29:59;;;;;;;;;;;;;;;22.08;26.52;100405.75;4459957;32;33256;-80
2022/04/30 09:32:28;;;;;;;;;;;;;;;22.00;27.94;100410.53;4419726;32;32261;-80
2022/04/30 09:37:42;;;;;;;;;;;;;;;22.48;27.48;100402.13;4447634;32;34420;-79
2022/04/30 09:40:15;;;;;;;;;;;;;;;22.37;25.13;100401.91;4446172;32;33571;-79
2022/04/30 09:42:48;;;;;;;;;;;;;;;22.25;26.19;100396.22;4459697;32;33485;-81
2022/04/30 09:45:30;;;;;;;;;;;;;;;22.09;25.70;100390.34;4430181;32;35037;-80
2022/04/30 09:47:58;;;;;;;;;;;;;;;22.27;25.77;100396.84;4432455;32;34168;-81
2022/04/30 09:56:08;;;;;;;;;;;;;;;22.41;25.81;100381.50;4446875;32;36036;-79
2022/04/30 09:58:39;;;;;;;;;;;;;;;22.14;26.39;100386.00;4438464;32;33885;-80
2022/04/30 10:01:07;;;;;;;;;;;;;;;22.25;26.25;100385.38;4432314;32;33513;-80
2022/04/30 10:03:35;;;;;;;;;;;;;;;22.60;25.12;100380.69;4445222;32;34621;-81
2022/04/30 10:06:03;;;;;;;;;;;;;;;22.80;24.72;100370.66;4445182;32;34700;-80
2022/04/30 10:08:32;;;;;;;;;;;;;;;22.95;24.96;100372.13;4432203;32;34650;-80
2022/04/30 10:11:06;;;;;;;;;;;;;;;22.99;27.25;100365.25;4432140;32;32772;-80
2022/04/30 10:13:36;;;;;;;;;;;;;;;23.33;27.85;100356.88;4432000;32;33581;-80
2022/04/30 10:16:04;;;;;;;;;;;;;;;23.41;27.19;100351.19;4445118;32;34694;-80
2022/04/30 10:18:35;;;;;;;;;;;;;;;23.46;25.37;100356.00;4431836;32;34279;-80
2022/04/30 10:21:06;;;;;;;;;;;;;;;23.47;24.64;100346.78;4445010;32;33446;-80
2022/04/30 10:23:33;;;;;;;;;;;;;;;22.98;25.55;100358.16;4432597;32;34196;-80
2022/04/30 10:26:07;;;;;;;;;;;;;;;23.38;26.59;100350.81;4444504;32;35109;-79
2022/04/30 10:28:35;;;;;;;;;;;;;;;22.84;25.46;100356.47;4458926;32;33812;-80
2022/04/30 10:31:06;;;;;;;;;;;;;;;23.05;27.09;100350.84;4459254;32;33576;-80
2022/04/30 10:33:34;;;;;;;;;;;;;;;23.40;25.49;100343.28;4461287;32;33709;-80
2022/04/30 10:36:06;;;;;;;;;;;;;;;22.94;25.98;100351.47;4446782;32;35900;-80
2022/04/30 10:38:34;;;;;;;;;;;;;;;22.71;26.37;100359.19;4444238;32;34776;-81
2022/04/30 10:41:03;;;;;;;;;;;;;;;22.95;26.16;100347.69;4447050;32;33499;-80
2022/04/30 10:43:32;;;;;;;;;;;;;;;22.87;25.71;100344.38;4433834;32;33405;-80
2022/04/30 10:45:59;;;;;;;;;;;;;;;22.96;25.99;100349.41;4446600;32;34702;-80
2022/04/30 10:48:27;;;;;;;;;;;;;;;23.24;25.70;100333.72;4461025;32;34604;-81
2022/04/30 10:51:05;;;;;;;;;;;;;;;23.31;26.27;100333.69;4447005;32;33161;-81
2022/04/30 10:53:33;;;;;;;;;;;;;;;23.42;24.84;100323.03;4434396;32;33734;-81
2022/04/30 10:56:03;;;;;;;;;;;;;;;23.54;24.88;100329.44;4446790;32;34302;-80
2022/04/30 10:58:32;;;;;;;;;;;;;;;24.04;24.92;100315.00;4447102;32;34958;-80
2022/04/30 11:01:15;;;;;;;;;;;;;;;24.53;22.80;100312.34;4446864;32;32051;-80
2022/04/30 11:03:48;;;;;;;;;;;;;;;24.96;24.36;100318.72;4446940;32;34240;-81
2022/04/30 11:06:20;;;;;;;;;;;;;;;24.75;22.60;100321.84;4460705;32;35204;-81
2022/04/30 11:09:01;;;;;;;;;;;;;;;25.35;23.01;100305.56;4420807;32;33603;-80
2022/04/30 11:11:29;;;;;;;;;;;;;;;26.32;22.46;100303.41;4461266;32;33237;-81
2022/04/30 11:13:59;;;;;;;;;;;;;;;25.21;22.22;100308.66;4446578;32;34100;-80
2022/04/30 11:16:34;;;;;;;;;;;;;;;25.75;21.97;100303.19;4446591;32;35729;-80
2022/04/30 11:19:04;;;;;;;;;;;;;;;25.86;22.23;100299.69;4433878;32;34520;-82
2022/04/30 11:21:32;;;;;;;;;;;;;;;26.63;21.06;100300.44;4447073;32;32114;-81
2022/04/30 11:23:59;;;;;;;;;;;;;;;26.54;17.67;100287.38;4461034;32;35610;-81
2022/04/30 11:26:29;;;;;;;;;;;;;;;27.30;19.02;100287.03;4460717;32;34747;-80
2022/04/30 11:28:56;;;;;;;;;;;;;;;27.28;18.05;100293.81;4433856;32;33485;-80
2022/04/30 11:31:24;;;;;;;;;;;;;;;26.87;19.55;100288.47;4433939;32;33786;-80
2022/04/30 11:33:51;;;;;;;;;;;;;;;25.32;19.84;100297.00;4446680;32;33666;-80
2022/04/30 11:36:19;;;;;;;;;;;;;;;26.07;18.74;100282.84;4421728;27;34377;-81
2022/04/30 11:38:51;;;;;;;;;;;;;;;26.15;18.87;100286.06;4425842;32;34567;-83
2022/04/30 11:41:19;;;;;;;;;;;;;;;25.67;19.08;100276.25;4407348;32;32895;-81
2022/04/30 11:43:56;;;;;;;;;;;;;;;26.87;20.12;100280.28;4406810;32;33465;-82
2022/04/30 11:46:24;;;;;;;;;;;;;;;27.48;19.15;100265.00;4409221;32;34275;-82
2022/04/30 11:48:51;;;;;;;;;;;;;;;27.85;17.87;100266.34;4407467;32;34268;-82
2022/04/30 11:51:19;;;;;;;;;;;;;;;25.61;18.83;100274.44;4396949;32;32912;-81
2022/04/30 11:54:03;;;;;;;;;;;;;;;26.29;18.99;100267.59;4399849;32;32488;-84
2022/04/30 11:56:30;;;;;;;;;;;;;;;26.85;17.88;100271.50;4408551;32;33810;-82
2022/04/30 11:58:58;;;;;;;;;;;;;;;25.72;18.75;100271.78;4409323;32;35146;-78
2022/04/30 12:01:31;;;;;;;;;;;;;;;26.03;18.39;100265.28;4395589;32;33916;-80
2022/04/30 12:04:00;;;;;;;;;;;;;;;26.20;17.82;100258.94;4389972;32;32464;-79
2022/04/30 12:06:29;;;;;;;;;;;;;;;26.47;17.99;100256.59;4409199;32;33718;-79
2022/04/30 12:08:56;;;;;;;;;;;;;;;25.81;19.27;100256.75;4406863;32;34063;-82
2022/04/30 12:11:25;;;;;;;;;;;;;;;26.66;17.34;100244.53;4394676;32;33569;-81
2022/04/30 12:13:59;;;;;;;;;;;;;;;26.26;18.96;100246.25;4409577;32;33098;-81
2022/04/30 12:16:57;;;;;;;;;;;;;;;26.11;20.86;100240.37;4393270;32;35940;-81
2022/04/30 12:25:05;;;;;;;;;;;;;;;25.09;19.61;100245.91;4408296;32;34192;-81
2022/04/30 12:27:34;;;;;;;;;;;;;;;24.86;20.12;100240.31;4408904;32;36733;-80
2022/04/30 12:30:14;;;;;;;;;;;;;;;24.92;21.11;100241.28;4402778;32;32956;-82
2022/04/30 12:32:46;;;;;;;;;;;;;;;25.69;19.50;100238.69;4395408;32;33446;-81
2022/04/30 12:35:15;;;;;;;;;;;;;;;26.66;21.84;100225.41;4401967;32;32661;-83
2022/04/30 12:41:07;;;;;;;;;;;;;;;;;;;;;
2022/04/30 12:44:19;;;;;;;;;;;;;;;25.58;20.79;100234.03;4401803;32;31802;-82
2022/04/30 12:47:16;;;;;;;;;;;;;;;25.28;20.84;100233.13;4419659;32;34579;-82
2022/04/30 12:59:46;;;;;;;;;;;;;;;;;;;;;
2022/04/30 13:03:20;;;;;;;;;;;;;;;24.42;21.90;100215.16;4359842;32;33849;-81
2022/04/30 13:05:52;;;;;;;;;;;;;;;23.66;24.88;100207.38;4325555;32;34100;-81
2022/04/30 13:22:23;;;;;;;;;;;;;;;23.40;22.63;100199.34;4329796;33;31777;-79
2022/04/30 13:24:52;;;;;;;;;;;;;;;23.64;22.13;100191.28;4331063;33;32448;-79
2022/04/30 13:28:08;;;;;;;;;;;;;;;;;;;;;
2022/04/30 13:31:19;;;;;;;;;;;;;;;23.75;22.68;100189.75;4379744;32;33045;-79
2022/04/30 13:35:07;;;;;;;;;;;;;;;24.76;23.39;100192.87;4411216;32;33499;-79
2022/04/30 13:40:48;;;;;;;;;;;;;;;;;;;;;
2022/04/30 13:54:11;;;;;;;;;;;;;;;27.65;18.82;100147.53;4369742;32;35868;-80
2022/04/30 13:56:28;;;;;;;;;;;;;;;27.11;19.58;100148.91;4369576;32;35210;-78
2022/04/30 14:05:38;;;;;;;;;;;;;;;26.69;19.91;100141.16;4363886;32;34854;-80
2022/04/30 14:24:41;;;;;;;;;;;;;;;24.16;22.80;100141.97;4289320;33;33474;-80
2022/04/30 14:30:52;;;;;;;;;;;;;;;25.01;20.92;100137.31;4301388;33;34992;-81
2022/04/30 14:33:42;;;;;;;;;;;;;;;25.08;20.77;100138.06;4287185;33;33716;-81
2022/04/30 14:59:39;;;;;;;;;;;;;;;23.55;22.70;100140.97;4301223;33;35170;-81
2022/04/30 15:01:51;;;;;;;;;;;;;;;23.29;23.49;100132.16;4289000;33;32202;-80
2022/04/30 15:09:14;;;;;;;;;;;;;;;23.42;23.29;100129.38;4314848;33;35392;-81
2022/04/30 15:24:18;;;;;;;;;;;;;;;;;;;;;
2022/04/30 15:27:25;;;;;;;;;;;;;;;25.07;21.41;100111.03;4324877;33;31514;-80
2022/04/30 15:41:58;;;;;;;;;;;;;;;26.57;18.64;100098.56;4373890;32;32808;-78
2022/04/30 15:57:42;;;;;;;;;;;;;;;26.86;18.67;100090.22;4377647;32;34795;-80
2022/04/30 16:00:09;;;;;;;;;;;;;;;26.69;18.42;100086.56;4381828;32;34779;-82